sensor_id;sensor_type;location;lat;lon;timestamp;temperature;humidity
22645;DHT22;11489;50.834;6.752;2023-02-28T00:01:05;0.50;84.50
22645;DHT22;11489;50.834;6.752;2023-02-28T00:03:30;0.50;84.60
22645;DHT22;11489;50.834;6.752;2023-02-28T00:06:01;0.40;84.70
22645;DHT22;11489;50.834;6.752;2023-02-28T00:08:27;0.40;84.40
22645;DHT22;11489;50.834;6.752;2023-02-28T00:10:53;0.40;84.60
22645;DHT22;11489;50.834;6.752;2023-02-28T00:13:19;0.40;84.70
22645;DHT22;11489;50.834;6.752;2023-02-28T00:15:45;0.30;84.70
22645;DHT22;11489;50.834;6.752;2023-02-28T00:18:11;0.30;85.00
22645;DHT22;11489;50.834;6.752;2023-02-28T00:20:37;0.20;84.80
22645;DHT22;11489;50.834;6.752;2023-02-28T00:23:03;0.20;84.90
22645;DHT22;11489;50.834;6.752;2023-02-28T00:25:29;0.20;85.00
22645;DHT22;11489;50.834;6.752;2023-02-28T00:27:54;0.20;85.00
22645;DHT22;11489;50.834;6.752;2023-02-28T00:30:22;0.20;85.20
22645;DHT22;11489;50.834;6.752;2023-02-28T00:32:49;0.20;85.10
22645;DHT22;11489;50.834;6.752;2023-02-28T00:35:15;0.20;85.10
22645;DHT22;11489;50.834;6.752;2023-02-28T00:37:41;0.10;84.90
22645;DHT22;11489;50.834;6.752;2023-02-28T00:40:08;0.10;85.20
22645;DHT22;11489;50.834;6.752;2023-02-28T00:42:35;0.10;85.40
22645;DHT22;11489;50.834;6.752;2023-02-28T00:45:01;0.10;85.50
22645;DHT22;11489;50.834;6.752;2023-02-28T00:47:27;0.10;85.70
22645;DHT22;11489;50.834;6.752;2023-02-28T00:49:52;0.10;86.00
22645;DHT22;11489;50.834;6.752;2023-02-28T00:52:18;0.10;85.70
22645;DHT22;11489;50.834;6.752;2023-02-28T00:54:44;0.10;85.90
22645;DHT22;11489;50.834;6.752;2023-02-28T00:57:09;0.00;85.70
22645;DHT22;11489;50.834;6.752;2023-02-28T00:59:35;0.00;85.70
22645;DHT22;11489;50.834;6.752;2023-02-28T01:02:01;0.00;85.60
22645;DHT22;11489;50.834;6.752;2023-02-28T01:04:26;0.00;85.70
22645;DHT22;11489;50.834;6.752;2023-02-28T01:06:52;0.00;85.80
22645;DHT22;11489;50.834;6.752;2023-02-28T01:09:18;0.00;85.70
22645;DHT22;11489;50.834;6.752;2023-02-28T01:11:43;0.00;86.10
22645;DHT22;11489;50.834;6.752;2023-02-28T01:14:13;-0.10;86.00
22645;DHT22;11489;50.834;6.752;2023-02-28T01:16:39;0.00;86.20
22645;DHT22;11489;50.834;6.752;2023-02-28T01:19:04;-0.10;86.30
22645;DHT22;11489;50.834;6.752;2023-02-28T01:21:30;-0.10;86.20
22645;DHT22;11489;50.834;6.752;2023-02-28T01:23:57;-0.10;86.40
22645;DHT22;11489;50.834;6.752;2023-02-28T01:26:23;-0.10;86.80
22645;DHT22;11489;50.834;6.752;2023-02-28T01:28:50;-0.10;86.70
22645;DHT22;11489;50.834;6.752;2023-02-28T01:31:17;-0.10;86.90
22645;DHT22;11489;50.834;6.752;2023-02-28T01:33:44;-0.10;86.80
22645;DHT22;11489;50.834;6.752;2023-02-28T01:36:13;0.00;86.90
22645;DHT22;11489;50.834;6.752;2023-02-28T01:38:39;-0.10;86.70
22645;DHT22;11489;50.834;6.752;2023-02-28T01:41:06;0.00;86.50
22645;DHT22;11489;50.834;6.752;2023-02-28T01:46:14;0.00;86.60
22645;DHT22;11489;50.834;6.752;2023-02-28T01:48:48;-0.10;86.40
22645;DHT22;11489;50.834;6.752;2023-02-28T01:51:41;0.00;86.20
22645;DHT22;11489;50.834;6.752;2023-02-28T01:54:14;-0.10;85.70
22645;DHT22;11489;50.834;6.752;2023-02-28T01:56:46;-0.10;86.00
22645;DHT22;11489;50.834;6.752;2023-02-28T01:59:18;-0.10;86.10
22645;DHT22;11489;50.834;6.752;2023-02-28T02:01:46;-0.10;86.10
22645;DHT22;11489;50.834;6.752;2023-02-28T02:04:11;-0.20;86.00
22645;DHT22;11489;50.834;6.752;2023-02-28T02:06:43;-0.20;86.00
22645;DHT22;11489;50.834;6.752;2023-02-28T02:09:11;-0.20;86.00
22645;DHT22;11489;50.834;6.752;2023-02-28T02:11:39;-0.20;86.00
22645;DHT22;11489;50.834;6.752;2023-02-28T02:14:48;-0.30;86.00
22645;DHT22;11489;50.834;6.752;2023-02-28T02:25:59;-0.30;86.40
22645;DHT22;11489;50.834;6.752;2023-02-28T02:28:49;-0.30;86.70
22645;DHT22;11489;50.834;6.752;2023-02-28T02:34:37;-0.40;86.80
22645;DHT22;11489;50.834;6.752;2023-02-28T02:39:51;-0.40;86.70
22645;DHT22;11489;50.834;6.752;2023-02-28T02:42:29;-0.40;86.60
22645;DHT22;11489;50.834;6.752;2023-02-28T02:45:05;-0.50;86.70
22645;DHT22;11489;50.834;6.752;2023-02-28T02:47:33;-0.50;86.50
22645;DHT22;11489;50.834;6.752;2023-02-28T02:50:05;-0.50;86.80
22645;DHT22;11489;50.834;6.752;2023-02-28T02:52:38;-0.50;87.00
22645;DHT22;11489;50.834;6.752;2023-02-28T02:55:06;-0.50;87.10
22645;DHT22;11489;50.834;6.752;2023-02-28T02:57:36;-0.50;87.00
22645;DHT22;11489;50.834;6.752;2023-02-28T03:00:05;-0.50;87.20
22645;DHT22;11489;50.834;6.752;2023-02-28T03:02:36;-0.60;87.20
22645;DHT22;11489;50.834;6.752;2023-02-28T03:05:08;-0.60;87.40
22645;DHT22;11489;50.834;6.752;2023-02-28T03:07:37;-0.60;87.40
22645;DHT22;11489;50.834;6.752;2023-02-28T03:10:02;-0.60;87.20
22645;DHT22;11489;50.834;6.752;2023-02-28T03:12:42;-0.60;87.20
22645;DHT22;11489;50.834;6.752;2023-02-28T03:15:26;-0.50;87.00
22645;DHT22;11489;50.834;6.752;2023-02-28T03:18:12;-0.60;87.00
22645;DHT22;11489;50.834;6.752;2023-02-28T03:20:59;-0.60;87.20
22645;DHT22;11489;50.834;6.752;2023-02-28T03:23:45;-0.60;87.40
22645;DHT22;11489;50.834;6.752;2023-02-28T03:26:23;-0.60;87.30
22645;DHT22;11489;50.834;6.752;2023-02-28T03:31:39;-0.60;87.80
22645;DHT22;11489;50.834;6.752;2023-02-28T03:34:21;-0.60;87.70
22645;DHT22;11489;50.834;6.752;2023-02-28T03:36:51;-0.50;87.80
22645;DHT22;11489;50.834;6.752;2023-02-28T03:39:28;-0.50;87.80
22645;DHT22;11489;50.834;6.752;2023-02-28T03:42:01;-0.50;87.70
22645;DHT22;11489;50.834;6.752;2023-02-28T03:45:00;-0.50;87.60
22645;DHT22;11489;50.834;6.752;2023-02-28T03:50:18;-0.50;87.60
22645;DHT22;11489;50.834;6.752;2023-02-28T03:55:28;-0.50;88.20
22645;DHT22;11489;50.834;6.752;2023-02-28T03:58:01;-0.50;88.00
22645;DHT22;11489;50.834;6.752;2023-02-28T04:00:31;-0.50;88.10
22645;DHT22;11489;50.834;6.752;2023-02-28T04:02:58;-0.40;88.10
22645;DHT22;11489;50.834;6.752;2023-02-28T04:05:24;-0.40;88.00
22645;DHT22;11489;50.834;6.752;2023-02-28T04:07:51;-0.40;87.90
22645;DHT22;11489;50.834;6.752;2023-02-28T04:10:17;-0.40;87.70
22645;DHT22;11489;50.834;6.752;2023-02-28T04:12:43;-0.40;87.90
22645;DHT22;11489;50.834;6.752;2023-02-28T04:15:08;-0.40;87.70
22645;DHT22;11489;50.834;6.752;2023-02-28T04:17:36;-0.40;87.60
22645;DHT22;11489;50.834;6.752;2023-02-28T04:20:01;-0.40;87.90
22645;DHT22;11489;50.834;6.752;2023-02-28T04:22:28;-0.40;87.70
22645;DHT22;11489;50.834;6.752;2023-02-28T04:24:54;-0.40;88.20
22645;DHT22;11489;50.834;6.752;2023-02-28T04:27:20;-0.40;88.20
22645;DHT22;11489;50.834;6.752;2023-02-28T04:29:46;-0.40;88.50
22645;DHT22;11489;50.834;6.752;2023-02-28T04:32:12;-0.40;88.30
22645;DHT22;11489;50.834;6.752;2023-02-28T04:34:38;-0.40;88.10
22645;DHT22;11489;50.834;6.752;2023-02-28T04:37:04;-0.40;88.00
22645;DHT22;11489;50.834;6.752;2023-02-28T04:39:30;-0.40;88.00
22645;DHT22;11489;50.834;6.752;2023-02-28T04:41:55;-0.40;87.80
22645;DHT22;11489;50.834;6.752;2023-02-28T04:44:22;-0.40;87.60
22645;DHT22;11489;50.834;6.752;2023-02-28T04:46:48;-0.40;87.70
22645;DHT22;11489;50.834;6.752;2023-02-28T04:49:14;-0.40;87.60
22645;DHT22;11489;50.834;6.752;2023-02-28T04:51:41;-0.40;87.50
22645;DHT22;11489;50.834;6.752;2023-02-28T04:54:07;-0.50;87.20
22645;DHT22;11489;50.834;6.752;2023-02-28T04:56:33;-0.50;87.10
22645;DHT22;11489;50.834;6.752;2023-02-28T04:58:59;-0.60;87.10
22645;DHT22;11489;50.834;6.752;2023-02-28T05:01:28;-0.60;87.10
22645;DHT22;11489;50.834;6.752;2023-02-28T05:03:55;-0.60;87.00
22645;DHT22;11489;50.834;6.752;2023-02-28T05:06:24;-0.70;87.00
22645;DHT22;11489;50.834;6.752;2023-02-28T05:08:50;-0.70;86.90
22645;DHT22;11489;50.834;6.752;2023-02-28T05:13:44;-0.70;87.40
22645;DHT22;11489;50.834;6.752;2023-02-28T05:16:10;-0.80;87.30
22645;DHT22;11489;50.834;6.752;2023-02-28T05:18:36;-0.80;87.60
22645;DHT22;11489;50.834;6.752;2023-02-28T05:21:02;-0.80;87.40
22645;DHT22;11489;50.834;6.752;2023-02-28T05:23:27;-0.90;87.40
22645;DHT22;11489;50.834;6.752;2023-02-28T05:25:53;-0.90;87.30
22645;DHT22;11489;50.834;6.752;2023-02-28T05:28:20;-0.90;87.20
22645;DHT22;11489;50.834;6.752;2023-02-28T05:30:46;-1.00;87.40
22645;DHT22;11489;50.834;6.752;2023-02-28T05:33:12;-1.00;87.30
22645;DHT22;11489;50.834;6.752;2023-02-28T05:35:41;-1.00;87.40
22645;DHT22;11489;50.834;6.752;2023-02-28T05:38:10;-1.10;86.90
22645;DHT22;11489;50.834;6.752;2023-02-28T05:40:38;-1.10;86.80
22645;DHT22;11489;50.834;6.752;2023-02-28T05:43:04;-1.10;87.40
22645;DHT22;11489;50.834;6.752;2023-02-28T05:45:30;-1.10;87.40
22645;DHT22;11489;50.834;6.752;2023-02-28T05:47:56;-1.20;87.30
22645;DHT22;11489;50.834;6.752;2023-02-28T05:50:22;-1.20;87.20
22645;DHT22;11489;50.834;6.752;2023-02-28T05:52:51;-1.20;87.10
22645;DHT22;11489;50.834;6.752;2023-02-28T05:55:17;-1.20;86.80
22645;DHT22;11489;50.834;6.752;2023-02-28T05:57:43;-1.30;87.40
22645;DHT22;11489;50.834;6.752;2023-02-28T06:00:10;-1.30;87.30
22645;DHT22;11489;50.834;6.752;2023-02-28T06:02:38;-1.30;87.40
22645;DHT22;11489;50.834;6.752;2023-02-28T06:05:06;-1.30;87.40
22645;DHT22;11489;50.834;6.752;2023-02-28T06:07:32;-1.30;87.10
22645;DHT22;11489;50.834;6.752;2023-02-28T06:09:58;-1.40;86.80
22645;DHT22;11489;50.834;6.752;2023-02-28T06:12:23;-1.30;86.60
22645;DHT22;11489;50.834;6.752;2023-02-28T06:14:49;-1.40;86.40
22645;DHT22;11489;50.834;6.752;2023-02-28T06:17:15;-1.40;86.30
22645;DHT22;11489;50.834;6.752;2023-02-28T06:19:40;-1.50;86.20
22645;DHT22;11489;50.834;6.752;2023-02-28T06:22:06;-1.50;86.20
22645;DHT22;11489;50.834;6.752;2023-02-28T06:24:32;-1.60;86.10
22645;DHT22;11489;50.834;6.752;2023-02-28T06:26:58;-1.60;86.00
22645;DHT22;11489;50.834;6.752;2023-02-28T06:29:31;-1.70;86.00
22645;DHT22;11489;50.834;6.752;2023-02-28T06:31:57;-1.70;86.90
22645;DHT22;11489;50.834;6.752;2023-02-28T06:34:22;-1.80;86.40
22645;DHT22;11489;50.834;6.752;2023-02-28T06:36:50;-1.80;86.70
22645;DHT22;11489;50.834;6.752;2023-02-28T06:39:17;-1.80;87.70
22645;DHT22;11489;50.834;6.752;2023-02-28T06:41:43;-1.80;87.10
22645;DHT22;11489;50.834;6.752;2023-02-28T06:44:20;-1.80;87.10
22645;DHT22;11489;50.834;6.752;2023-02-28T06:46:46;-1.80;87.00
22645;DHT22;11489;50.834;6.752;2023-02-28T06:49:12;-1.80;87.40
22645;DHT22;11489;50.834;6.752;2023-02-28T06:51:40;-1.80;88.00
22645;DHT22;11489;50.834;6.752;2023-02-28T06:54:07;-1.80;88.40
22645;DHT22;11489;50.834;6.752;2023-02-28T06:56:36;-1.70;88.70
22645;DHT22;11489;50.834;6.752;2023-02-28T06:59:01;-1.70;89.30
22645;DHT22;11489;50.834;6.752;2023-02-28T07:01:27;-1.60;90.00
22645;DHT22;11489;50.834;6.752;2023-02-28T07:03:54;-1.50;90.20
22645;DHT22;11489;50.834;6.752;2023-02-28T07:06:21;-1.40;90.30
22645;DHT22;11489;50.834;6.752;2023-02-28T07:08:49;-1.30;90.40
22645;DHT22;11489;50.834;6.752;2023-02-28T07:11:14;-1.20;90.50
22645;DHT22;11489;50.834;6.752;2023-02-28T07:13:40;-1.10;90.50
22645;DHT22;11489;50.834;6.752;2023-02-28T07:16:08;-1.00;90.50
22645;DHT22;11489;50.834;6.752;2023-02-28T07:18:34;-0.90;90.50
22645;DHT22;11489;50.834;6.752;2023-02-28T07:21:08;-0.80;90.40
22645;DHT22;11489;50.834;6.752;2023-02-28T07:23:35;-0.60;90.40
22645;DHT22;11489;50.834;6.752;2023-02-28T07:26:01;-0.50;90.40
22645;DHT22;11489;50.834;6.752;2023-02-28T07:28:27;-0.40;90.40
22645;DHT22;11489;50.834;6.752;2023-02-28T07:30:52;-0.30;90.20
22645;DHT22;11489;50.834;6.752;2023-02-28T07:33:18;-0.20;90.20
22645;DHT22;11489;50.834;6.752;2023-02-28T07:35:44;-0.10;90.20
22645;DHT22;11489;50.834;6.752;2023-02-28T07:38:10;0.00;90.10
22645;DHT22;11489;50.834;6.752;2023-02-28T07:40:36;0.00;90.00
22645;DHT22;11489;50.834;6.752;2023-02-28T07:43:02;0.20;90.00
22645;DHT22;11489;50.834;6.752;2023-02-28T07:45:29;0.20;90.00
22645;DHT22;11489;50.834;6.752;2023-02-28T07:47:57;0.30;89.70
22645;DHT22;11489;50.834;6.752;2023-02-28T07:50:23;0.40;89.60
22645;DHT22;11489;50.834;6.752;2023-02-28T07:52:48;0.50;89.40
22645;DHT22;11489;50.834;6.752;2023-02-28T07:55:14;0.50;89.30
22645;DHT22;11489;50.834;6.752;2023-02-28T07:57:42;0.60;89.50
22645;DHT22;11489;50.834;6.752;2023-02-28T08:00:09;0.70;89.20
22645;DHT22;11489;50.834;6.752;2023-02-28T08:02:36;0.80;89.10
22645;DHT22;11489;50.834;6.752;2023-02-28T08:05:01;0.80;89.10
22645;DHT22;11489;50.834;6.752;2023-02-28T08:07:27;0.90;89.00
22645;DHT22;11489;50.834;6.752;2023-02-28T08:09:53;1.00;88.80
22645;DHT22;11489;50.834;6.752;2023-02-28T08:12:19;1.00;88.50
22645;DHT22;11489;50.834;6.752;2023-02-28T08:14:45;1.10;88.50
22645;DHT22;11489;50.834;6.752;2023-02-28T08:17:11;1.20;88.80
22645;DHT22;11489;50.834;6.752;2023-02-28T08:19:37;1.20;88.60
22645;DHT22;11489;50.834;6.752;2023-02-28T08:22:02;1.30;88.60
22645;DHT22;11489;50.834;6.752;2023-02-28T08:24:28;1.40;88.40
22645;DHT22;11489;50.834;6.752;2023-02-28T08:26:54;1.40;88.00
22645;DHT22;11489;50.834;6.752;2023-02-28T08:29:20;1.50;88.40
22645;DHT22;11489;50.834;6.752;2023-02-28T08:31:45;1.60;88.30
22645;DHT22;11489;50.834;6.752;2023-02-28T08:34:14;1.60;88.10
22645;DHT22;11489;50.834;6.752;2023-02-28T08:36:40;1.70;87.50
22645;DHT22;11489;50.834;6.752;2023-02-28T08:39:07;1.70;87.70
22645;DHT22;11489;50.834;6.752;2023-02-28T08:41:33;1.80;87.70
22645;DHT22;11489;50.834;6.752;2023-02-28T08:43:58;1.90;87.40
22645;DHT22;11489;50.834;6.752;2023-02-28T08:46:24;1.90;87.30
22645;DHT22;11489;50.834;6.752;2023-02-28T08:48:54;2.00;87.40
22645;DHT22;11489;50.834;6.752;2023-02-28T08:51:21;2.10;86.90
22645;DHT22;11489;50.834;6.752;2023-02-28T08:53:53;2.10;86.30
22645;DHT22;11489;50.834;6.752;2023-02-28T08:56:19;2.20;86.00
22645;DHT22;11489;50.834;6.752;2023-02-28T08:58:46;2.30;85.70
22645;DHT22;11489;50.834;6.752;2023-02-28T09:01:15;2.30;85.30
22645;DHT22;11489;50.834;6.752;2023-02-28T09:03:41;2.40;85.10
22645;DHT22;11489;50.834;6.752;2023-02-28T09:06:09;2.40;85.00
22645;DHT22;11489;50.834;6.752;2023-02-28T09:08:35;2.50;84.70
22645;DHT22;11489;50.834;6.752;2023-02-28T09:11:01;2.50;84.50
22645;DHT22;11489;50.834;6.752;2023-02-28T09:13:29;2.60;84.20
22645;DHT22;11489;50.834;6.752;2023-02-28T09:15:59;2.60;83.30
22645;DHT22;11489;50.834;6.752;2023-02-28T09:18:25;2.70;83.30
22645;DHT22;11489;50.834;6.752;2023-02-28T09:20:51;2.70;83.50
22645;DHT22;11489;50.834;6.752;2023-02-28T09:23:18;2.90;84.00
22645;DHT22;11489;50.834;6.752;2023-02-28T09:25:49;2.90;84.00
22645;DHT22;11489;50.834;6.752;2023-02-28T09:28:17;3.10;83.70
22645;DHT22;11489;50.834;6.752;2023-02-28T09:30:48;3.20;83.80
22645;DHT22;11489;50.834;6.752;2023-02-28T09:33:14;3.30;83.30
22645;DHT22;11489;50.834;6.752;2023-02-28T09:35:40;3.40;83.20
22645;DHT22;11489;50.834;6.752;2023-02-28T09:38:06;3.40;81.70
22645;DHT22;11489;50.834;6.752;2023-02-28T09:40:38;3.50;82.00
22645;DHT22;11489;50.834;6.752;2023-02-28T09:43:04;3.60;82.10
22645;DHT22;11489;50.834;6.752;2023-02-28T09:45:37;3.60;82.20
22645;DHT22;11489;50.834;6.752;2023-02-28T09:48:14;3.70;81.60
22645;DHT22;11489;50.834;6.752;2023-02-28T09:50:49;3.80;81.50
22645;DHT22;11489;50.834;6.752;2023-02-28T09:53:27;3.90;81.30
22645;DHT22;11489;50.834;6.752;2023-02-28T09:55:58;4.00;81.60
22645;DHT22;11489;50.834;6.752;2023-02-28T09:58:38;4.10;82.10
22645;DHT22;11489;50.834;6.752;2023-02-28T10:01:12;4.20;81.50
22645;DHT22;11489;50.834;6.752;2023-02-28T10:03:49;4.30;82.20
22645;DHT22;11489;50.834;6.752;2023-02-28T10:06:26;4.50;82.10
22645;DHT22;11489;50.834;6.752;2023-02-28T10:09:04;4.60;82.00
22645;DHT22;11489;50.834;6.752;2023-02-28T10:11:33;4.70;80.90
22645;DHT22;11489;50.834;6.752;2023-02-28T10:14:14;4.80;81.50
22645;DHT22;11489;50.834;6.752;2023-02-28T10:16:43;4.90;80.00
22645;DHT22;11489;50.834;6.752;2023-02-28T10:19:26;4.90;81.20
22645;DHT22;11489;50.834;6.752;2023-02-28T10:24:46;5.00;79.20
22645;DHT22;11489;50.834;6.752;2023-02-28T10:27:21;5.10;79.80
22645;DHT22;11489;50.834;6.752;2023-02-28T10:29:52;5.10;79.90
22645;DHT22;11489;50.834;6.752;2023-02-28T10:32:21;5.20;80.40
22645;DHT22;11489;50.834;6.752;2023-02-28T10:34:59;5.30;81.00
22645;DHT22;11489;50.834;6.752;2023-02-28T10:37:26;5.40;80.40
22645;DHT22;11489;50.834;6.752;2023-02-28T10:39:52;5.50;81.20
22645;DHT22;11489;50.834;6.752;2023-02-28T10:42:28;5.70;80.80
22645;DHT22;11489;50.834;6.752;2023-02-28T10:45:12;5.90;81.40
22645;DHT22;11489;50.834;6.752;2023-02-28T10:47:57;6.00;79.40
22645;DHT22;11489;50.834;6.752;2023-02-28T10:52:53;6.30;79.70
22645;DHT22;11489;50.834;6.752;2023-02-28T10:55:25;6.30;80.10
22645;DHT22;11489;50.834;6.752;2023-02-28T10:57:52;6.40;79.40
22645;DHT22;11489;50.834;6.752;2023-02-28T11:00:23;6.50;79.70
22645;DHT22;11489;50.834;6.752;2023-02-28T11:02:52;6.50;76.90
22645;DHT22;11489;50.834;6.752;2023-02-28T11:05:25;6.50;76.20
22645;DHT22;11489;50.834;6.752;2023-02-28T11:07:56;6.40;75.00
22645;DHT22;11489;50.834;6.752;2023-02-28T11:10:25;6.40;75.90
22645;DHT22;11489;50.834;6.752;2023-02-28T11:12:55;6.30;76.30
22645;DHT22;11489;50.834;6.752;2023-02-28T11:15:25;6.30;76.80
22645;DHT22;11489;50.834;6.752;2023-02-28T11:20:26;6.30;75.90
22645;DHT22;11489;50.834;6.752;2023-02-28T11:22:54;6.40;76.50
22645;DHT22;11489;50.834;6.752;2023-02-28T11:25:35;6.50;77.60
22645;DHT22;11489;50.834;6.752;2023-02-28T11:28:04;6.60;77.70
22645;DHT22;11489;50.834;6.752;2023-02-28T11:30:40;6.70;77.90
22645;DHT22;11489;50.834;6.752;2023-02-28T11:36:00;6.90;75.10
22645;DHT22;11489;50.834;6.752;2023-02-28T11:38:27;6.90;76.70
22645;DHT22;11489;50.834;6.752;2023-02-28T11:43:27;6.90;76.00
22645;DHT22;11489;50.834;6.752;2023-02-28T11:51:26;7.10;74.60
22645;DHT22;11489;50.834;6.752;2023-02-28T11:54:16;7.00;73.00
22645;DHT22;11489;50.834;6.752;2023-02-28T11:56:48;6.80;71.70
22645;DHT22;11489;50.834;6.752;2023-02-28T11:59:39;6.70;74.10
22645;DHT22;11489;50.834;6.752;2023-02-28T12:02:28;6.70;75.40
22645;DHT22;11489;50.834;6.752;2023-02-28T12:05:17;6.80;74.70
22645;DHT22;11489;50.834;6.752;2023-02-28T12:08:14;7.00;76.90
22645;DHT22;11489;50.834;6.752;2023-02-28T12:10:57;7.20;73.10
22645;DHT22;11489;50.834;6.752;2023-02-28T12:13:36;7.20;69.40
22645;DHT22;11489;50.834;6.752;2023-02-28T12:19:21;7.00;68.60
22645;DHT22;11489;50.834;6.752;2023-02-28T12:27:34;7.00;68.20
22645;DHT22;11489;50.834;6.752;2023-02-28T12:30:24;6.90;70.10
22645;DHT22;11489;50.834;6.752;2023-02-28T12:33:12;6.90;68.00
22645;DHT22;11489;50.834;6.752;2023-02-28T12:35:58;6.90;68.10
22645;DHT22;11489;50.834;6.752;2023-02-28T12:38:33;6.90;69.70
22645;DHT22;11489;50.834;6.752;2023-02-28T12:41:09;6.90;70.00
22645;DHT22;11489;50.834;6.752;2023-02-28T12:43:51;6.90;70.30
22645;DHT22;11489;50.834;6.752;2023-02-28T12:46:29;6.90;71.40
22645;DHT22;11489;50.834;6.752;2023-02-28T12:49:00;7.00;71.60
22645;DHT22;11489;50.834;6.752;2023-02-28T12:51:28;7.10;71.90
22645;DHT22;11489;50.834;6.752;2023-02-28T12:54:14;7.10;72.00
22645;DHT22;11489;50.834;6.752;2023-02-28T12:56:47;7.20;71.20
22645;DHT22;11489;50.834;6.752;2023-02-28T12:59:27;7.30;72.60
22645;DHT22;11489;50.834;6.752;2023-02-28T13:10:44;7.40;67.20
22645;DHT22;11489;50.834;6.752;2023-02-28T13:13:19;7.30;69.20
22645;DHT22;11489;50.834;6.752;2023-02-28T13:16:05;7.30;69.90
22645;DHT22;11489;50.834;6.752;2023-02-28T13:21:00;7.30;68.50
22645;DHT22;11489;50.834;6.752;2023-02-28T13:26:12;7.20;66.80
22645;DHT22;11489;50.834;6.752;2023-02-28T13:29:00;7.10;68.80
22645;DHT22;11489;50.834;6.752;2023-02-28T13:31:26;7.20;67.10
22645;DHT22;11489;50.834;6.752;2023-02-28T13:36:29;7.10;67.20
22645;DHT22;11489;50.834;6.752;2023-02-28T13:39:00;7.10;68.50
22645;DHT22;11489;50.834;6.752;2023-02-28T13:46:36;7.40;69.10
22645;DHT22;11489;50.834;6.752;2023-02-28T13:49:32;7.40;69.40
22645;DHT22;11489;50.834;6.752;2023-02-28T14:06:09;7.50;69.10
22645;DHT22;11489;50.834;6.752;2023-02-28T14:08:36;7.50;68.80
22645;DHT22;11489;50.834;6.752;2023-02-28T14:11:08;7.50;70.00
22645;DHT22;11489;50.834;6.752;2023-02-28T14:13:41;7.50;69.20
22645;DHT22;11489;50.834;6.752;2023-02-28T14:16:17;7.50;69.40
22645;DHT22;11489;50.834;6.752;2023-02-28T14:21:39;7.50;67.60
22645;DHT22;11489;50.834;6.752;2023-02-28T14:24:13;7.40;68.30
22645;DHT22;11489;50.834;6.752;2023-02-28T14:30:19;7.20;65.40
22645;DHT22;11489;50.834;6.752;2023-02-28T14:33:25;7.10;65.90
22645;DHT22;11489;50.834;6.752;2023-02-28T14:36:12;7.20;67.10
22645;DHT22;11489;50.834;6.752;2023-02-28T14:38:45;7.20;67.80
22645;DHT22;11489;50.834;6.752;2023-02-28T14:41:30;7.20;69.10
22645;DHT22;11489;50.834;6.752;2023-02-28T14:43:59;7.20;68.90
22645;DHT22;11489;50.834;6.752;2023-02-28T14:46:38;7.30;69.90
22645;DHT22;11489;50.834;6.752;2023-02-28T14:49:05;7.30;68.20
22645;DHT22;11489;50.834;6.752;2023-02-28T14:51:33;7.30;69.80
22645;DHT22;11489;50.834;6.752;2023-02-28T14:54:00;7.40;69.90
22645;DHT22;11489;50.834;6.752;2023-02-28T14:56:34;7.40;69.80
22645;DHT22;11489;50.834;6.752;2023-02-28T14:59:00;7.40;69.10
22645;DHT22;11489;50.834;6.752;2023-02-28T15:01:26;7.40;70.00
22645;DHT22;11489;50.834;6.752;2023-02-28T15:04:00;7.50;70.10
22645;DHT22;11489;50.834;6.752;2023-02-28T15:06:26;7.50;68.80
22645;DHT22;11489;50.834;6.752;2023-02-28T15:09:10;7.50;69.60
22645;DHT22;11489;50.834;6.752;2023-02-28T15:11:37;7.40;67.70
22645;DHT22;11489;50.834;6.752;2023-02-28T15:14:15;7.40;68.70
22645;DHT22;11489;50.834;6.752;2023-02-28T15:16:43;7.40;67.70
22645;DHT22;11489;50.834;6.752;2023-02-28T15:19:24;7.30;68.50
22645;DHT22;11489;50.834;6.752;2023-02-28T15:22:00;7.30;67.60
22645;DHT22;11489;50.834;6.752;2023-02-28T15:24:43;7.20;68.20
22645;DHT22;11489;50.834;6.752;2023-02-28T15:27:15;7.20;67.40
22645;DHT22;11489;50.834;6.752;2023-02-28T15:29:55;7.20;68.80
22645;DHT22;11489;50.834;6.752;2023-02-28T15:32:33;7.10;67.50
22645;DHT22;11489;50.834;6.752;2023-02-28T15:35:25;7.10;68.30
22645;DHT22;11489;50.834;6.752;2023-02-28T15:40:22;7.10;69.30
22645;DHT22;11489;50.834;6.752;2023-02-28T15:43:22;7.00;69.60
22645;DHT22;11489;50.834;6.752;2023-02-28T15:45:52;7.10;69.00
22645;DHT22;11489;50.834;6.752;2023-02-28T15:51:15;7.00;68.80
22645;DHT22;11489;50.834;6.752;2023-02-28T15:53:54;7.00;68.20
22645;DHT22;11489;50.834;6.752;2023-02-28T15:56:38;7.00;68.70
22645;DHT22;11489;50.834;6.752;2023-02-28T15:59:15;7.10;68.50
22645;DHT22;11489;50.834;6.752;2023-02-28T16:01:41;7.20;68.80
22645;DHT22;11489;50.834;6.752;2023-02-28T16:04:19;7.30;70.50
22645;DHT22;11489;50.834;6.752;2023-02-28T16:07:11;7.40;68.90
22645;DHT22;11489;50.834;6.752;2023-02-28T16:09:31;7.40;70.20
22645;DHT22;11489;50.834;6.752;2023-02-28T16:12:01;7.40;69.90
22645;DHT22;11489;50.834;6.752;2023-02-28T16:14:29;7.40;68.70
22645;DHT22;11489;50.834;6.752;2023-02-28T16:17:22;7.30;68.60
22645;DHT22;11489;50.834;6.752;2023-02-28T16:19:48;7.20;67.60
22645;DHT22;11489;50.834;6.752;2023-02-28T16:22:14;7.20;68.80
22645;DHT22;11489;50.834;6.752;2023-02-28T16:24:39;7.10;68.70
22645;DHT22;11489;50.834;6.752;2023-02-28T16:27:06;7.10;68.80
22645;DHT22;11489;50.834;6.752;2023-02-28T16:29:36;7.00;68.60
22645;DHT22;11489;50.834;6.752;2023-02-28T16:32:05;7.00;68.30
22645;DHT22;11489;50.834;6.752;2023-02-28T16:34:31;6.90;68.70
22645;DHT22;11489;50.834;6.752;2023-02-28T16:36:57;6.90;69.40
22645;DHT22;11489;50.834;6.752;2023-02-28T16:39:23;6.80;69.00
22645;DHT22;11489;50.834;6.752;2023-02-28T16:41:50;6.70;68.60
22645;DHT22;11489;50.834;6.752;2023-02-28T16:44:48;6.60;68.40
22645;DHT22;11489;50.834;6.752;2023-02-28T16:47:14;6.50;66.40
22645;DHT22;11489;50.834;6.752;2023-02-28T16:49:40;6.50;68.80
22645;DHT22;11489;50.834;6.752;2023-02-28T16:52:09;6.40;68.50
22645;DHT22;11489;50.834;6.752;2023-02-28T16:54:35;6.30;68.30
22645;DHT22;11489;50.834;6.752;2023-02-28T16:57:01;6.20;68.20
22645;DHT22;11489;50.834;6.752;2023-02-28T16:59:27;6.10;68.30
22645;DHT22;11489;50.834;6.752;2023-02-28T17:01:54;6.00;68.00
22645;DHT22;11489;50.834;6.752;2023-02-28T17:04:22;5.90;67.80
22645;DHT22;11489;50.834;6.752;2023-02-28T17:06:47;5.80;67.90
22645;DHT22;11489;50.834;6.752;2023-02-28T17:09:19;5.70;67.90
22645;DHT22;11489;50.834;6.752;2023-02-28T17:11:46;5.60;67.70
22645;DHT22;11489;50.834;6.752;2023-02-28T17:14:12;5.50;68.40
22645;DHT22;11489;50.834;6.752;2023-02-28T17:16:39;5.40;68.10
22645;DHT22;11489;50.834;6.752;2023-02-28T17:19:07;5.30;67.80
22645;DHT22;11489;50.834;6.752;2023-02-28T17:21:36;5.20;68.10
22645;DHT22;11489;50.834;6.752;2023-02-28T17:24:02;5.10;68.10
22645;DHT22;11489;50.834;6.752;2023-02-28T17:26:28;5.00;68.20
22645;DHT22;11489;50.834;6.752;2023-02-28T17:28:55;4.90;68.30
22645;DHT22;11489;50.834;6.752;2023-02-28T17:31:22;4.80;67.90
22645;DHT22;11489;50.834;6.752;2023-02-28T17:33:48;4.70;68.10
22645;DHT22;11489;50.834;6.752;2023-02-28T17:36:16;4.70;68.30
22645;DHT22;11489;50.834;6.752;2023-02-28T17:38:43;4.50;68.10
22645;DHT22;11489;50.834;6.752;2023-02-28T17:41:12;4.40;68.20
22645;DHT22;11489;50.834;6.752;2023-02-28T17:43:37;4.30;68.00